Kezdőlap
METAR-TAF:

METAR-TAF

Repülőterek :

Reschen Pass, Olaszország

földrajzi szélesség: 46-50N, földrajzi hosszúság: 010-30E, magasság: 1800 m

Jelenlegi meteorológiai megfigyelések

A jelentés 59 perccel ezelõtt készült, 15:55 UTC
Észak-északnyugati szél 5 kt
Hőmérséklet 21°C
Páratartalom 43%
Légköri nyomás 1023 hPa
Látótávolság 10 km, vagy több
Kevés felhő 2000 lábon, Cumulonimbus.
Szakadozott felhőzet 2500 lábon

METAR: LIVE 201555Z 34005KT 9999 FEW020CB BKN025 21/08 Q1023 RMK BKN VIS MIN 9999

Idő: 18:54 (16:54 UTC)


TAF: hiányzik

Meteorológiai megfigyelések és előrejelzések több, mint 4000 repülőtéren (METAR és TAF jelentéseket).

A térképen piros és sárga pontok jelzik az elérhető meteorológiai állomásokat.

Mozgassa az egeret a pont fölött, hogy megjelenjen az állomás neve.

Azután kattintson az időjárási megfigyelések és előrejelzések megtekintéséhez.

A térkép megváltoztatása: kattintson a fekete keresztel jelölt zöld gombra ráközelítéshez, a vonallal jelölt zöld gombra távolításhoz, vagy a zöld nyilakra a szomszédos térképek eléréséhez.


METAR-TAF: